Time,TemperatureF,DewpointF,PressureIn,WindDirection,WindDirectionDegrees,WindSpeedMPH,WindSpeedGustMPH,Humidity,HourlyPrecipIn,Conditions,Clouds,dailyrainin,SoftwareType,DateUTC
2013-05-29 00:01:00,53.6,48.3,29.39,NW,315,0.2,0.7,82,0.08,,,0.00,WUHU216HW,2013-05-29 07:01:00,
2013-05-29 00:06:00,53.6,48.6,29.38,NW,315,0.0,0.7,83,0.08,,,0.00,WUHU216HW,2013-05-29 07:06:00,
2013-05-29 00:11:00,53.6,48.6,29.38,NNW,337,0.5,0.7,83,0.08,,,0.02,WUHU216HW,2013-05-29 07:11:00,
2013-05-29 00:16:00,53.6,48.6,29.38,SSE,160,0.5,0.7,83,0.06,,,0.02,WUHU216HW,2013-05-29 07:16:00,
2013-05-29 00:21:00,53.6,48.6,29.38,SE,135,0.3,1.1,83,0.06,,,0.02,WUHU216HW,2013-05-29 07:21:00,
2013-05-29 00:26:00,53.6,48.6,29.38,SSW,203,0.4,1.1,83,0.05,,,0.02,WUHU216HW,2013-05-29 07:26:00,
2013-05-29 00:31:00,53.6,49.0,29.38,SSE,153,0.6,1.1,84,0.06,,,0.04,WUHU216HW,2013-05-29 07:31:00,
2013-05-29 00:36:00,53.5,48.8,29.37,ESE,119,0.6,1.1,84,0.05,,,0.04,WUHU216HW,2013-05-29 07:36:00,
2013-05-29 00:41:00,53.5,48.8,29.37,East,90,0.3,1.1,84,0.06,,,0.04,WUHU216HW,2013-05-29 07:41:00,
2013-05-29 00:46:00,53.6,49.0,29.36,East,90,0.4,1.1,84,0.06,,,0.04,WUHU216HW,2013-05-29 07:46:00,
2013-05-29 00:51:00,53.6,49.0,29.37,ENE,58,0.6,1.6,84,0.06,,,0.04,WUHU216HW,2013-05-29 07:51:00,
2013-05-29 00:56:00,53.6,49.0,29.36,ENE,69,0.6,1.8,84,0.05,,,0.04,WUHU216HW,2013-05-29 07:56:00,
2013-05-29 01:01:00,53.5,48.8,29.36,SE,135,1.1,1.8,84,0.04,,,0.04,WUHU216HW,2013-05-29 08:01:00,
2013-05-29 01:06:00,53.5,48.8,29.35,ENE,73,1.4,2.5,84,0.04,,,0.04,WUHU216HW,2013-05-29 08:06:00,
2013-05-29 01:11:00,53.3,48.6,29.35,SE,135,1.3,2.5,84,0.03,,,0.04,WUHU216HW,2013-05-29 08:11:00,
2013-05-29 01:16:00,53.3,48.6,29.35,ESE,113,0.4,1.3,84,0.04,,,0.06,WUHU216HW,2013-05-29 08:16:00,
2013-05-29 01:21:00,53.1,48.4,29.35,SE,135,1.6,1.6,84,0.03,,,0.06,WUHU216HW,2013-05-29 08:21:00,
2013-05-29 01:26:00,52.9,48.3,29.35,East,93,0.5,2.0,84,0.03,,,0.06,WUHU216HW,2013-05-29 08:26:00,
2013-05-29 01:31:00,52.9,48.3,29.34,East,90,1.3,2.0,84,0.02,,,0.06,WUHU216HW,2013-05-29 08:31:00,
2013-05-29 01:36:00,52.9,48.3,29.34,NE,45,1.6,2.5,84,0.02,,,0.06,WUHU216HW,2013-05-29 08:36:00,
2013-05-29 01:41:00,52.9,48.3,29.34,East,94,0.6,2.5,84,0.01,,,0.06,WUHU216HW,2013-05-29 08:41:00,
2013-05-29 01:46:00,52.9,48.3,29.34,SSE,158,0.3,1.6,84,0.01,,,0.06,WUHU216HW,2013-05-29 08:46:00,
2013-05-29 01:51:00,52.7,48.3,29.33,East,90,1.0,1.6,85,0.01,,,0.06,WUHU216HW,2013-05-29 08:51:00,
2013-05-29 01:56:00,52.7,48.3,29.32,ENE,68,2.0,2.5,85,0.02,,,0.07,WUHU216HW,2013-05-29 08:56:00,
2013-05-29 02:01:00,52.7,48.3,29.32,South,180,2.0,2.5,85,0.02,,,0.07,WUHU216HW,2013-05-29 09:01:00,
2013-05-29 02:06:00,52.6,48.2,29.32,SSE,158,2.9,3.4,85,0.02,,,0.07,WUHU216HW,2013-05-29 09:06:00,
2013-05-29 02:11:00,52.6,48.4,29.32,East,98,2.1,4.9,86,0.03,,,0.07,WUHU216HW,2013-05-29 09:11:00,
2013-05-29 02:16:00,52.6,48.4,29.32,ESE,113,1.3,4.9,86,0.02,,,0.07,WUHU216HW,2013-05-29 09:16:00,
2013-05-29 02:21:00,52.6,48.4,29.31,ENE,64,2.5,4.0,86,0.03,,,0.09,WUHU216HW,2013-05-29 09:21:00,
2013-05-29 02:26:00,52.4,48.2,29.31,SSE,158,2.7,4.0,86,0.04,,,0.09,WUHU216HW,2013-05-29 09:26:00,
2013-05-29 02:31:00,52.4,48.6,29.31,SSE,158,2.5,4.3,87,0.04,,,0.09,WUHU216HW,2013-05-29 09:31:00,
2013-05-29 02:36:00,52.4,48.6,29.31,ESE,113,2.7,4.3,87,0.06,,,0.11,WUHU216HW,2013-05-29 09:36:00,
2013-05-29 02:41:00,52.2,48.4,29.30,SE,128,3.4,4.9,87,0.06,,,0.11,WUHU216HW,2013-05-29 09:41:00,
2013-05-29 02:46:00,52.2,48.7,29.30,SE,135,2.2,4.9,88,0.06,,,0.11,WUHU216HW,2013-05-29 09:46:00,
2013-05-29 02:51:00,52.2,48.7,29.30,SE,144,1.7,2.9,88,0.06,,,0.11,WUHU216HW,2013-05-29 09:51:00,
2013-05-29 02:56:00,52.4,48.6,29.30,East,98,2.3,3.1,87,0.05,,,0.11,WUHU216HW,2013-05-29 09:56:00,
2013-05-29 03:01:00,52.4,48.9,29.30,SE,135,3.1,3.1,88,0.05,,,0.11,WUHU216HW,2013-05-29 10:01:00,
2013-05-29 03:06:00,52.4,48.9,29.30,SSE,151,2.5,3.6,88,0.05,,,0.11,WUHU216HW,2013-05-29 10:06:00,
2013-05-29 03:11:00,52.2,49.1,29.30,ENE,68,1.6,3.6,89,0.04,,,0.11,WUHU216HW,2013-05-29 10:11:00,
2013-05-29 03:16:00,52.2,49.1,29.30,SE,135,2.7,2.7,89,0.03,,,0.11,WUHU216HW,2013-05-29 10:16:00,
2013-05-29 03:21:00,52.2,49.1,29.29,South,173,2.0,3.4,89,0.02,,,0.11,WUHU216HW,2013-05-29 10:21:00,
2013-05-29 03:26:00,52.4,49.2,29.29,SE,139,1.5,3.4,89,0.02,,,0.11,WUHU216HW,2013-05-29 10:26:00,
2013-05-29 03:31:00,52.6,49.4,29.29,SE,125,2.3,3.6,89,0.02,,,0.11,WUHU216HW,2013-05-29 10:31:00,
2013-05-29 03:36:00,52.6,49.4,29.29,SE,135,2.9,4.9,89,0.00,,,0.11,WUHU216HW,2013-05-29 10:36:00,
2013-05-29 03:41:00,52.7,49.6,29.29,SE,137,1.7,4.9,89,0.00,,,0.11,WUHU216HW,2013-05-29 10:41:00,
2013-05-29 03:46:00,52.9,49.8,29.29,SSE,158,2.5,4.5,89,0.00,,,0.11,WUHU216HW,2013-05-29 10:46:00,
2013-05-29 03:51:00,52.9,49.8,29.29,SE,137,2.1,4.3,89,0.00,,,0.11,WUHU216HW,2013-05-29 10:51:00,
2013-05-29 03:56:00,53.1,50.0,29.29,NNE,23,3.1,4.3,89,0.00,,,0.11,WUHU216HW,2013-05-29 10:56:00,
2013-05-29 04:01:00,53.3,50.1,29.29,SSW,203,1.8,4.7,89,0.00,,,0.11,WUHU216HW,2013-05-29 11:01:00,
2013-05-29 04:06:00,53.5,50.3,29.29,South,180,3.1,5.4,89,0.00,,,0.11,WUHU216HW,2013-05-29 11:06:00,
2013-05-29 04:11:00,53.6,50.5,29.29,SSE,160,2.4,5.4,89,0.01,,,0.13,WUHU216HW,2013-05-29 11:11:00,
2013-05-29 04:16:00,53.8,50.7,29.29,South,180,3.6,5.4,89,0.01,,,0.13,WUHU216HW,2013-05-29 11:16:00,
2013-05-29 04:21:00,54.0,50.9,29.29,SE,135,2.0,4.9,89,0.01,,,0.13,WUHU216HW,2013-05-29 11:21:00,
2013-05-29 04:26:00,54.0,50.9,29.28,SE,142,3.3,6.3,89,0.01,,,0.13,WUHU216HW,2013-05-29 11:26:00,
2013-05-29 04:31:00,54.2,50.7,29.28,ESE,113,4.0,6.3,88,0.01,,,0.13,WUHU216HW,2013-05-29 11:31:00,
2013-05-29 04:36:00,54.2,50.7,29.28,ENE,68,1.6,6.3,88,0.01,,,0.13,WUHU216HW,2013-05-29 11:36:00,
2013-05-29 04:41:00,54.4,50.9,29.29,West,270,6.9,6.9,88,0.01,,,0.13,WUHU216HW,2013-05-29 11:41:00,
2013-05-29 04:46:00,54.4,50.9,29.28,South,186,2.6,6.9,88,0.01,,,0.13,WUHU216HW,2013-05-29 11:46:00,
2013-05-29 04:51:00,54.4,51.2,29.28,South,182,2.7,5.1,89,0.01,,,0.13,WUHU216HW,2013-05-29 11:51:00,
2013-05-29 04:56:00,54.4,51.2,29.28,SE,135,3.1,5.1,89,0.01,,,0.13,WUHU216HW,2013-05-29 11:56:00,
2013-05-29 05:01:00,54.4,51.2,29.28,SSE,149,4.4,6.0,89,0.01,,,0.13,WUHU216HW,2013-05-29 12:01:00,
2013-05-29 05:06:00,54.4,51.2,29.28,SSE,150,4.2,6.3,89,0.02,,,0.14,WUHU216HW,2013-05-29 12:06:00,
2013-05-29 05:11:00,54.4,51.2,29.28,WSW,248,1.8,6.3,89,0.01,,,0.14,WUHU216HW,2013-05-29 12:11:00,
2013-05-29 05:16:00,54.4,51.2,29.28,SE,135,3.4,6.0,89,0.01,,,0.14,WUHU216HW,2013-05-29 12:16:00,
2013-05-29 05:21:00,54.2,51.0,29.28,SE,143,5.6,9.2,89,0.02,,,0.15,WUHU216HW,2013-05-29 12:21:00,
2013-05-29 05:26:00,54.2,51.0,29.29,SE,135,7.2,9.2,89,0.02,,,0.15,WUHU216HW,2013-05-29 12:26:00,
2013-05-29 05:31:00,54.2,51.3,29.29,SSW,192,4.4,7.6,90,0.02,,,0.15,WUHU216HW,2013-05-29 12:31:00,
2013-05-29 05:36:00,54.2,51.3,29.28,SSE,155,2.2,7.6,90,0.02,,,0.15,WUHU216HW,2013-05-29 12:36:00,
2013-05-29 05:41:00,54.2,51.3,29.28,SSE,158,3.6,4.0,90,0.03,,,0.16,WUHU216HW,2013-05-29 12:41:00,
2013-05-29 05:46:00,54.2,51.3,29.28,SE,140,2.1,4.7,90,0.03,,,0.16,WUHU216HW,2013-05-29 12:46:00,
2013-05-29 05:51:00,54.0,51.1,29.28,South,176,2.9,7.4,90,0.03,,,0.16,WUHU216HW,2013-05-29 12:51:00,
2013-05-29 05:56:00,54.2,51.3,29.29,SSW,203,4.0,7.4,90,0.03,,,0.16,WUHU216HW,2013-05-29 12:56:00,
2013-05-29 06:01:00,54.2,51.3,29.29,SE,135,5.1,8.9,90,0.03,,,0.16,WUHU216HW,2013-05-29 13:01:00,
2013-05-29 06:06:00,54.4,51.5,29.29,SW,235,4.5,8.9,90,0.02,,,0.16,WUHU216HW,2013-05-29 13:06:00,
2013-05-29 06:11:00,54.4,51.5,29.30,South,171,2.8,7.4,90,0.03,,,0.17,WUHU216HW,2013-05-29 13:11:00,
2013-05-29 06:16:00,54.4,51.5,29.30,SE,126,1.9,6.3,90,0.03,,,0.18,WUHU216HW,2013-05-29 13:16:00,
2013-05-29 06:21:00,54.4,51.5,29.31,SSW,192,2.8,5.4,90,0.03,,,0.18,WUHU216HW,2013-05-29 13:21:00,
2013-05-29 06:26:00,54.4,51.5,29.32,SE,135,7.8,7.8,90,0.04,,,0.19,WUHU216HW,2013-05-29 13:26:00,
2013-05-29 06:31:00,54.4,51.5,29.32,SSW,203,4.7,7.8,90,0.04,,,0.19,WUHU216HW,2013-05-29 13:31:00,
2013-05-29 06:36:00,54.4,51.5,29.33,NNW,338,3.6,7.8,90,0.03,,,0.19,WUHU216HW,2013-05-29 13:36:00,
2013-05-29 06:41:00,54.5,51.7,29.33,SSW,203,2.0,6.0,90,0.03,,,0.19,WUHU216HW,2013-05-29 13:41:00,
2013-05-29 06:46:00,54.4,51.2,29.34,WSW,248,3.4,6.0,89,0.03,,,0.19,WUHU216HW,2013-05-29 13:46:00,
2013-05-29 06:51:00,54.5,51.3,29.34,SW,225,5.6,6.0,89,0.03,,,0.19,WUHU216HW,2013-05-29 13:51:00,
2013-05-29 06:56:00,54.7,51.5,29.35,South,177,4.7,6.7,89,0.03,,,0.19,WUHU216HW,2013-05-29 13:56:00,
2013-05-29 07:01:00,54.7,51.2,29.36,WNW,293,2.9,6.7,88,0.03,,,0.19,WUHU216HW,2013-05-29 14:01:00,
2013-05-29 07:06:00,54.7,51.2,29.36,NW,305,1.8,4.7,88,0.02,,,0.19,WUHU216HW,2013-05-29 14:06:00,
2013-05-29 07:11:00,54.9,51.0,29.37,SSE,158,4.0,5.4,87,0.02,,,0.19,WUHU216HW,2013-05-29 14:11:00,
2013-05-29 07:16:00,54.7,50.9,29.37,SW,225,4.7,5.4,87,0.01,,,0.19,WUHU216HW,2013-05-29 14:16:00,
2013-05-29 07:21:00,54.9,50.8,29.38,SW,236,4.6,7.4,86,0.01,,,0.19,WUHU216HW,2013-05-29 14:21:00,
2013-05-29 07:26:00,54.7,50.6,29.38,ESE,113,3.8,7.4,86,0.00,,,0.19,WUHU216HW,2013-05-29 14:26:00,
2013-05-29 07:31:00,54.7,50.6,29.38,South,180,3.8,5.8,86,0.00,,,0.19,WUHU216HW,2013-05-29 14:31:00,
2013-05-29 07:36:00,54.7,50.6,29.39,NW,315,2.5,5.8,86,0.00,,,0.19,WUHU216HW,2013-05-29 14:36:00,
2013-05-29 07:41:00,54.7,50.6,29.40,WSW,254,2.7,4.7,86,0.00,,,0.19,WUHU216HW,2013-05-29 14:41:00,
2013-05-29 07:46:00,54.7,50.6,29.40,NNW,338,3.8,4.7,86,0.00,,,0.19,WUHU216HW,2013-05-29 14:46:00,
2013-05-29 07:51:00,54.7,50.2,29.41,SE,132,0.9,3.8,85,0.00,,,0.19,WUHU216HW,2013-05-29 14:51:00,
2013-05-29 07:56:00,54.5,50.1,29.41,SE,144,2.1,3.8,85,0.00,,,0.19,WUHU216HW,2013-05-29 14:56:00,
2013-05-29 08:01:00,54.7,50.2,29.42,South,180,3.4,4.0,85,0.00,,,0.19,WUHU216HW,2013-05-29 15:01:00,
2013-05-29 08:06:00,54.7,50.2,29.42,South,180,1.3,4.9,85,0.00,,,0.19,WUHU216HW,2013-05-29 15:06:00,
2013-05-29 08:11:00,54.7,50.6,29.42,South,180,2.5,4.9,86,0.00,,,0.19,WUHU216HW,2013-05-29 15:11:00,
2013-05-29 08:16:00,54.7,50.6,29.43,SE,135,1.1,4.0,86,0.00,,,0.19,WUHU216HW,2013-05-29 15:16:00,
2013-05-29 08:21:00,54.7,50.6,29.44,SSW,206,1.1,4.0,86,0.00,,,0.19,WUHU216HW,2013-05-29 15:21:00,
2013-05-29 08:26:00,54.9,50.8,29.44,SSE,160,1.0,3.8,86,0.00,,,0.19,WUHU216HW,2013-05-29 15:26:00,
2013-05-29 08:31:00,54.9,50.8,29.44,South,172,0.8,2.5,86,0.00,,,0.19,WUHU216HW,2013-05-29 15:31:00,
2013-05-29 08:36:00,54.9,50.8,29.45,WSW,248,1.6,2.2,86,0.00,,,0.19,WUHU216HW,2013-05-29 15:36:00,
2013-05-29 08:41:00,54.7,50.6,29.45,SSW,208,1.6,2.2,86,0.01,,,0.20,WUHU216HW,2013-05-29 15:41:00,
2013-05-29 08:46:00,54.9,51.0,29.45,SSE,156,1.9,4.9,87,0.01,,,0.20,WUHU216HW,2013-05-29 15:46:00,
2013-05-29 08:51:00,55.4,51.9,29.46,SE,135,0.7,4.9,88,0.01,,,0.20,WUHU216HW,2013-05-29 15:51:00,
2013-05-29 08:56:00,57.2,53.7,29.46,SSE,149,2.3,3.4,88,0.01,,,0.20,WUHU216HW,2013-05-29 15:56:00,
2013-05-29 09:01:00,58.0,54.1,29.46,SE,135,1.3,3.6,87,0.01,,,0.20,WUHU216HW,2013-05-29 16:01:00,
2013-05-29 09:06:00,57.8,53.3,29.46,SSE,152,2.7,4.5,85,0.01,,,0.20,WUHU216HW,2013-05-29 16:06:00,
2013-05-29 09:11:00,57.2,52.4,29.47,WSW,254,1.7,4.5,84,0.01,,,0.20,WUHU216HW,2013-05-29 16:11:00,
2013-05-29 09:17:00,57.1,52.2,29.47,South,180,1.3,4.0,84,0.01,,,0.20,WUHU216HW,2013-05-29 16:17:00,
2013-05-29 09:22:00,56.9,52.0,29.48,WSW,248,2.7,4.3,84,0.01,,,0.20,WUHU216HW,2013-05-29 16:22:00,
2013-05-29 09:27:00,56.9,52.0,29.48,West,280,1.3,4.3,84,0.01,,,0.20,WUHU216HW,2013-05-29 16:27:00,
2013-05-29 09:32:00,57.4,53.3,29.48,SW,225,1.3,4.0,86,0.01,,,0.20,WUHU216HW,2013-05-29 16:32:00,
2013-05-29 09:37:00,59.4,54.5,29.48,WNW,293,4.3,6.0,84,0.00,,,0.20,WUHU216HW,2013-05-29 16:37:00,
2013-05-29 09:42:00,60.3,54.6,29.49,SW,225,2.0,6.0,81,0.00,,,0.20,WUHU216HW,2013-05-29 16:42:00,
2013-05-29 09:47:00,59.9,53.5,29.49,WSW,239,2.1,4.9,79,0.00,,,0.20,WUHU216HW,2013-05-29 16:47:00,
2013-05-29 09:52:00,59.8,53.3,29.49,NW,315,2.0,4.0,79,0.00,,,0.20,WUHU216HW,2013-05-29 16:52:00,
2013-05-29 09:57:00,59.9,53.8,29.49,WSW,253,2.0,3.8,80,0.00,,,0.20,WUHU216HW,2013-05-29 16:57:00,
2013-05-29 10:02:00,59.8,53.3,29.50,SSE,161,2.0,4.7,79,0.00,,,0.20,WUHU216HW,2013-05-29 17:02:00,
2013-05-29 10:07:00,59.4,52.9,29.50,East,88,1.5,6.7,79,0.00,,,0.20,WUHU216HW,2013-05-29 17:07:00,
2013-05-29 10:12:00,59.9,53.5,29.50,SSW,195,3.4,6.7,79,0.00,,,0.20,WUHU216HW,2013-05-29 17:12:00,
2013-05-29 10:17:00,60.8,54.0,29.50,WSW,248,3.1,7.2,78,0.00,,,0.20,WUHU216HW,2013-05-29 17:17:00,
2013-05-29 10:22:00,61.0,53.5,29.51,WSW,249,3.1,7.6,76,0.00,,,0.20,WUHU216HW,2013-05-29 17:22:00,
2013-05-29 10:27:00,61.2,53.7,29.51,South,180,3.4,7.6,76,0.00,,,0.20,WUHU216HW,2013-05-29 17:27:00,
2013-05-29 10:32:00,62.1,54.5,29.51,SSW,203,2.2,6.9,76,0.00,,,0.20,WUHU216HW,2013-05-29 17:32:00,
2013-05-29 10:37:00,62.8,54.4,29.51,WSW,248,3.4,6.9,74,0.00,,,0.20,WUHU216HW,2013-05-29 17:37:00,
2013-05-29 10:42:00,63.4,55.3,29.52,West,261,2.7,6.7,75,0.00,,,0.20,WUHU216HW,2013-05-29 17:42:00,
2013-05-29 10:47:00,62.8,54.0,29.52,SSW,203,4.7,6.7,73,0.00,,,0.20,WUHU216HW,2013-05-29 17:47:00,
2013-05-29 10:52:00,62.1,53.4,29.52,WSW,248,4.0,6.5,73,0.00,,,0.20,WUHU216HW,2013-05-29 17:52:00,
2013-05-29 10:57:00,61.6,52.8,29.52,WSW,248,3.1,7.4,73,0.00,,,0.20,WUHU216HW,2013-05-29 17:57:00,
2013-05-29 11:02:00,61.4,52.7,29.53,South,184,4.6,7.6,73,0.00,,,0.20,WUHU216HW,2013-05-29 18:02:00,
2013-05-29 11:07:00,62.5,53.6,29.54,WSW,248,5.4,7.6,73,0.00,,,0.20,WUHU216HW,2013-05-29 18:07:00,
2013-05-29 11:12:00,63.4,54.5,29.53,South,180,2.6,7.4,73,0.00,,,0.20,WUHU216HW,2013-05-29 18:12:00,
2013-05-29 11:17:00,63.7,54.2,29.54,SE,135,7.4,7.4,71,0.00,,,0.20,WUHU216HW,2013-05-29 18:17:00,
2013-05-29 11:22:00,63.7,54.2,29.54,WSW,256,3.2,7.4,71,0.00,,,0.20,WUHU216HW,2013-05-29 18:22:00,
2013-05-29 11:27:00,63.9,54.4,29.54,SSW,211,3.1,7.4,71,0.00,,,0.20,WUHU216HW,2013-05-29 18:27:00,
2013-05-29 11:32:00,64.4,54.1,29.54,West,270,4.9,7.6,69,0.00,,,0.20,WUHU216HW,2013-05-29 18:32:00,
2013-05-29 11:37:00,64.4,54.5,29.54,SSW,203,2.5,7.6,70,0.00,,,0.20,WUHU216HW,2013-05-29 18:37:00,
2013-05-29 11:42:00,64.8,54.0,29.55,West,270,4.0,4.9,68,0.00,,,0.20,WUHU216HW,2013-05-29 18:42:00,
2013-05-29 11:47:00,64.4,54.1,29.55,SW,225,4.0,5.4,69,0.00,,,0.20,WUHU216HW,2013-05-29 18:47:00,
2013-05-29 11:52:00,64.3,53.5,29.55,SSW,203,4.3,5.4,68,0.00,,,0.20,WUHU216HW,2013-05-29 18:52:00,
2013-05-29 11:57:00,64.1,53.7,29.55,SW,215,3.2,6.7,69,0.00,,,0.20,WUHU216HW,2013-05-29 18:57:00,
2013-05-29 12:02:00,64.3,53.9,29.55,WSW,248,4.3,6.7,69,0.00,,,0.20,WUHU216HW,2013-05-29 19:02:00,
2013-05-29 12:07:00,64.6,54.3,29.56,SSE,158,3.6,6.0,69,0.00,,,0.20,WUHU216HW,2013-05-29 19:07:00,
2013-05-29 12:12:00,64.1,53.3,29.56,WSW,258,2.8,6.0,68,0.00,,,0.20,WUHU216HW,2013-05-29 19:12:00,
2013-05-29 12:17:00,63.9,53.6,29.56,WNW,287,2.7,6.0,69,0.00,,,0.20,WUHU216HW,2013-05-29 19:17:00,
2013-05-29 12:22:00,64.3,53.1,29.56,SSW,203,4.9,6.5,67,0.00,,,0.20,WUHU216HW,2013-05-29 19:22:00,
2013-05-29 12:27:00,64.1,53.3,29.56,West,261,4.8,8.1,68,0.00,,,0.20,WUHU216HW,2013-05-29 19:27:00,
2013-05-29 12:32:00,64.4,53.3,29.56,SSW,202,2.1,8.1,67,0.00,,,0.20,WUHU216HW,2013-05-29 19:32:00,
2013-05-29 12:37:00,64.1,52.5,29.56,WSW,248,5.1,5.8,66,0.00,,,0.20,WUHU216HW,2013-05-29 19:37:00,
2013-05-29 12:42:00,64.3,53.1,29.56,South,175,2.6,5.6,67,0.00,,,0.20,WUHU216HW,2013-05-29 19:42:00,
2013-05-29 12:47:00,64.4,53.3,29.56,WSW,257,2.3,5.1,67,0.00,,,0.20,WUHU216HW,2013-05-29 19:47:00,
2013-05-29 12:52:00,64.3,53.1,29.57,WNW,293,5.4,5.4,67,0.00,,,0.20,WUHU216HW,2013-05-29 19:52:00,
2013-05-29 12:57:00,63.9,52.8,29.56,WSW,252,2.8,5.4,67,0.00,,,0.20,WUHU216HW,2013-05-29 19:57:00,
2013-05-29 13:02:00,64.4,53.6,29.56,West,270,2.2,5.4,68,0.00,,,0.20,WUHU216HW,2013-05-29 20:02:00,
2013-05-29 13:07:00,65.0,53.7,29.56,SSW,193,2.5,5.4,67,0.00,,,0.20,WUHU216HW,2013-05-29 20:07:00,
2013-05-29 13:12:00,65.2,54.4,29.56,SW,225,2.0,5.4,68,0.00,,,0.20,WUHU216HW,2013-05-29 20:12:00,
2013-05-29 13:17:00,65.2,53.1,29.56,North,0,2.5,5.6,65,0.00,,,0.20,WUHU216HW,2013-05-29 20:17:00,
2013-05-29 13:22:00,65.2,53.5,29.56,WSW,254,2.0,5.6,66,0.00,,,0.20,WUHU216HW,2013-05-29 20:22:00,
2013-05-29 13:27:00,65.2,53.1,29.56,WSW,239,3.9,6.5,65,0.00,,,0.20,WUHU216HW,2013-05-29 20:27:00,
2013-05-29 13:32:00,64.4,52.4,29.56,SE,135,3.1,6.5,65,0.00,,,0.20,WUHU216HW,2013-05-29 20:32:00,
2013-05-29 13:37:00,63.9,51.8,29.56,West,259,3.1,4.3,65,0.00,,,0.20,WUHU216HW,2013-05-29 20:37:00,
2013-05-29 13:42:00,64.1,52.5,29.56,SW,225,2.7,4.0,66,0.00,,,0.20,WUHU216HW,2013-05-29 20:42:00,
2013-05-29 13:47:00,64.3,52.2,29.57,SSW,202,2.8,4.5,65,0.00,,,0.20,WUHU216HW,2013-05-29 20:47:00,
2013-05-29 13:52:00,64.3,52.7,29.56,SSE,154,4.1,6.9,66,0.00,,,0.20,WUHU216HW,2013-05-29 20:52:00,
2013-05-29 13:57:00,64.4,52.8,29.56,SW,232,4.8,7.4,66,0.00,,,0.20,WUHU216HW,2013-05-29 20:57:00,
2013-05-29 14:02:00,64.8,52.8,29.56,SSE,158,5.6,7.4,65,0.00,,,0.20,WUHU216HW,2013-05-29 21:02:00,
2013-05-29 14:07:00,64.6,52.6,29.57,SW,227,2.1,6.0,65,0.00,,,0.20,WUHU216HW,2013-05-29 21:07:00,
2013-05-29 14:12:00,64.4,52.4,29.57,SW,236,3.4,5.6,65,0.00,,,0.20,WUHU216HW,2013-05-29 21:12:00,
2013-05-29 14:17:00,64.8,52.8,29.57,ENE,68,2.9,5.4,65,0.00,,,0.20,WUHU216HW,2013-05-29 21:17:00,
2013-05-29 14:22:00,64.8,52.3,29.57,WSW,255,3.6,6.3,64,0.00,,,0.20,WUHU216HW,2013-05-29 21:22:00,
2013-05-29 14:27:00,65.5,53.8,29.57,WSW,247,2.9,6.3,66,0.00,,,0.20,WUHU216HW,2013-05-29 21:27:00,
2013-05-29 14:32:00,65.7,53.2,29.57,SE,135,4.0,5.6,64,0.00,,,0.20,WUHU216HW,2013-05-29 21:32:00,
2013-05-29 14:37:00,65.2,52.7,29.57,SSE,167,2.9,6.0,64,0.00,,,0.20,WUHU216HW,2013-05-29 21:37:00,
2013-05-29 14:42:00,64.4,52.4,29.57,SSW,203,3.4,6.0,65,0.00,,,0.20,WUHU216HW,2013-05-29 21:42:00,
2013-05-29 14:47:00,64.3,52.2,29.57,SW,218,1.3,3.8,65,0.00,,,0.20,WUHU216HW,2013-05-29 21:47:00,
2013-05-29 14:52:00,64.4,52.8,29.57,SE,144,2.7,4.3,66,0.00,,,0.20,WUHU216HW,2013-05-29 21:52:00,
2013-05-29 14:57:00,64.4,52.8,29.57,South,178,2.1,4.3,66,0.00,,,0.20,WUHU216HW,2013-05-29 21:57:00,
2013-05-29 15:02:00,64.4,52.4,29.57,WNW,293,4.7,5.1,65,0.00,,,0.20,WUHU216HW,2013-05-29 22:02:00,
2013-05-29 15:07:00,65.2,53.1,29.57,West,266,2.2,8.1,65,0.00,,,0.20,WUHU216HW,2013-05-29 22:07:00,
2013-05-29 15:12:00,65.2,52.2,29.57,SW,225,1.1,8.1,63,0.00,,,0.20,WUHU216HW,2013-05-29 22:12:00,
2013-05-29 15:17:00,65.2,52.2,29.57,South,172,1.6,4.0,63,0.00,,,0.20,WUHU216HW,2013-05-29 22:17:00,
2013-05-29 15:22:00,64.6,51.7,29.57,West,277,2.0,5.4,63,0.00,,,0.20,WUHU216HW,2013-05-29 22:22:00,
2013-05-29 15:27:00,64.4,51.9,29.57,WNW,295,1.8,5.4,64,0.00,,,0.20,WUHU216HW,2013-05-29 22:27:00,
2013-05-29 15:32:00,64.4,51.9,29.57,SSW,203,1.8,3.4,64,0.00,,,0.20,WUHU216HW,2013-05-29 22:32:00,
2013-05-29 15:37:00,64.8,51.8,29.57,West,268,5.2,9.2,63,0.00,,,0.20,WUHU216HW,2013-05-29 22:37:00,
2013-05-29 15:42:00,64.8,51.8,29.57,West,270,1.6,9.2,63,0.00,,,0.20,WUHU216HW,2013-05-29 22:42:00,
2013-05-29 15:47:00,65.2,52.2,29.57,West,261,4.2,6.0,63,0.00,,,0.20,WUHU216HW,2013-05-29 22:47:00,
2013-05-29 15:52:00,64.8,51.5,29.58,SE,135,4.3,6.0,62,0.00,,,0.20,WUHU216HW,2013-05-29 22:52:00,
2013-05-29 15:57:00,64.1,50.8,29.58,NW,315,4.3,5.6,62,0.00,,,0.20,WUHU216HW,2013-05-29 22:57:00,
2013-05-29 16:02:00,64.1,51.2,29.58,NW,308,3.1,6.7,63,0.00,,,0.20,WUHU216HW,2013-05-29 23:02:00,
2013-05-29 16:07:00,64.4,51.5,29.57,SW,223,2.6,6.7,63,0.00,,,0.20,WUHU216HW,2013-05-29 23:07:00,
2013-05-29 16:12:00,65.0,52.9,29.58,South,183,2.7,4.9,65,0.00,,,0.20,WUHU216HW,2013-05-29 23:12:00,
2013-05-29 16:17:00,65.2,52.2,29.58,WSW,248,2.8,6.3,63,0.00,,,0.20,WUHU216HW,2013-05-29 23:17:00,
2013-05-29 16:22:00,65.2,52.2,29.58,WNW,301,2.2,6.3,63,0.00,,,0.20,WUHU216HW,2013-05-29 23:22:00,
2013-05-29 16:27:00,65.2,52.7,29.58,SW,229,2.3,5.6,64,0.00,,,0.20,WUHU216HW,2013-05-29 23:27:00,
2013-05-29 16:32:00,64.6,51.7,29.58,South,171,1.1,5.1,63,0.00,,,0.20,WUHU216HW,2013-05-29 23:32:00,
2013-05-29 16:37:00,64.6,52.1,29.57,SSE,158,3.1,5.1,64,0.00,,,0.20,WUHU216HW,2013-05-29 23:37:00,
2013-05-29 16:42:00,64.4,51.9,29.58,SSW,203,4.7,4.7,64,0.00,,,0.20,WUHU216HW,2013-05-29 23:42:00,
2013-05-29 16:47:00,64.4,51.9,29.57,West,270,2.5,5.6,64,0.00,,,0.20,WUHU216HW,2013-05-29 23:47:00,
2013-05-29 16:52:00,64.8,52.8,29.57,SSE,158,1.6,5.6,65,0.00,,,0.20,WUHU216HW,2013-05-29 23:52:00,
2013-05-29 16:57:00,65.7,53.6,29.57,West,267,1.5,3.1,65,0.00,,,0.20,WUHU216HW,2013-05-29 23:57:00,
2013-05-29 17:02:00,66.2,52.8,29.57,South,190,1.9,6.3,62,0.00,,,0.20,WUHU216HW,2013-05-30 00:02:00,
2013-05-29 17:07:00,66.6,52.4,29.58,West,267,2.7,6.5,60,0.00,,,0.20,WUHU216HW,2013-05-30 00:07:00,
2013-05-29 17:12:00,66.4,51.7,29.58,West,272,5.5,8.1,59,0.00,,,0.20,WUHU216HW,2013-05-30 00:12:00,
2013-05-29 17:17:00,65.9,51.2,29.59,NNW,338,4.3,8.1,59,0.00,,,0.20,WUHU216HW,2013-05-30 00:17:00,
2013-05-29 17:22:00,65.2,50.5,29.59,SSW,213,2.8,6.9,59,0.00,,,0.20,WUHU216HW,2013-05-30 00:22:00,
2013-05-29 17:27:00,64.6,50.9,29.59,West,270,3.6,6.5,61,0.00,,,0.20,WUHU216HW,2013-05-30 00:27:00,
2013-05-29 17:32:00,64.4,51.1,29.59,NNW,338,6.7,7.6,62,0.00,,,0.20,WUHU216HW,2013-05-30 00:32:00,
2013-05-29 17:38:00,64.1,50.8,29.60,WSW,248,4.0,7.6,62,0.00,,,0.20,WUHU216HW,2013-05-30 00:38:00,
2013-05-29 17:43:00,63.7,50.9,29.60,WSW,245,2.7,6.7,63,0.00,,,0.20,WUHU216HW,2013-05-30 00:43:00,
2013-05-29 17:48:00,63.2,50.8,29.60,SW,235,4.2,6.7,64,0.00,,,0.20,WUHU216HW,2013-05-30 00:48:00,
2013-05-29 17:53:00,63.0,51.0,29.60,SE,135,2.5,8.1,65,0.00,,,0.20,WUHU216HW,2013-05-30 00:53:00,
2013-05-29 17:58:00,62.6,50.7,29.60,WSW,237,3.1,8.1,65,0.00,,,0.20,WUHU216HW,2013-05-30 00:58:00,
2013-05-29 18:03:00,62.3,50.3,29.61,WSW,251,1.9,6.9,65,0.00,,,0.20,WUHU216HW,2013-05-30 01:03:00,
2013-05-29 18:08:00,61.9,50.1,29.60,SSE,158,2.5,6.9,65,0.00,,,0.20,WUHU216HW,2013-05-30 01:08:00,
2013-05-29 18:13:00,61.6,50.1,29.61,SW,230,1.7,4.3,66,0.00,,,0.20,WUHU216HW,2013-05-30 01:13:00,
2013-05-29 18:18:00,61.6,49.7,29.61,SW,225,6.3,6.3,65,0.00,,,0.20,WUHU216HW,2013-05-30 01:18:00,
2013-05-29 18:23:00,61.4,50.0,29.61,SW,229,4.3,6.7,66,0.00,,,0.20,WUHU216HW,2013-05-30 01:23:00,
2013-05-29 18:28:00,61.4,50.0,29.61,SSW,203,5.4,7.8,66,0.00,,,0.20,WUHU216HW,2013-05-30 01:28:00,
2013-05-29 18:33:00,61.2,49.4,29.61,NW,315,4.9,8.1,65,0.00,,,0.20,WUHU216HW,2013-05-30 01:33:00,
2013-05-29 18:38:00,60.7,48.9,29.62,WSW,248,8.5,8.5,65,0.00,,,0.20,WUHU216HW,2013-05-30 01:38:00,
2013-05-29 18:43:00,60.5,49.2,29.62,WSW,256,2.9,8.5,66,0.00,,,0.20,WUHU216HW,2013-05-30 01:43:00,
2013-05-29 18:48:00,60.3,49.0,29.63,WNW,303,1.6,8.5,66,0.00,,,0.20,WUHU216HW,2013-05-30 01:48:00,
2013-05-29 18:53:00,60.1,48.8,29.63,West,270,2.5,7.4,66,0.00,,,0.20,WUHU216HW,2013-05-30 01:53:00,
2013-05-29 18:58:00,60.3,49.0,29.63,West,266,3.2,4.7,66,0.00,,,0.20,WUHU216HW,2013-05-30 01:58:00,
2013-05-29 19:03:00,60.1,48.3,29.63,SW,225,2.5,4.7,65,0.00,,,0.20,WUHU216HW,2013-05-30 02:03:00,
2013-05-29 19:08:00,59.6,47.8,29.63,WNW,293,6.0,6.3,65,0.00,,,0.20,WUHU216HW,2013-05-30 02:08:00,
2013-05-29 19:13:00,59.0,47.7,29.64,WSW,254,2.4,6.3,66,0.00,,,0.20,WUHU216HW,2013-05-30 02:13:00,
2013-05-29 19:18:00,59.0,47.7,29.64,West,270,3.1,6.9,66,0.00,,,0.20,WUHU216HW,2013-05-30 02:18:00,
2013-05-29 19:23:00,59.2,47.9,29.64,WSW,245,2.0,6.9,66,0.00,,,0.20,WUHU216HW,2013-05-30 02:23:00,
2013-05-29 19:28:00,59.2,47.9,29.64,SW,232,1.5,4.7,66,0.00,,,0.20,WUHU216HW,2013-05-30 02:28:00,
2013-05-29 19:33:00,58.7,47.4,29.64,SSE,158,1.6,2.9,66,0.00,,,0.20,WUHU216HW,2013-05-30 02:33:00,
2013-05-29 19:38:00,58.1,46.8,29.64,SSW,203,2.2,3.4,66,0.00,,,0.20,WUHU216HW,2013-05-30 02:38:00,
2013-05-29 19:43:00,57.6,46.7,29.64,WSW,252,1.4,3.4,67,0.00,,,0.20,WUHU216HW,2013-05-30 02:43:00,
2013-05-29 19:48:00,57.2,46.4,29.65,West,274,2.1,3.6,67,0.00,,,0.20,WUHU216HW,2013-05-30 02:48:00,
2013-05-29 19:53:00,56.9,46.5,29.65,WSW,248,1.6,4.0,68,0.00,,,0.20,WUHU216HW,2013-05-30 02:53:00,
2013-05-29 19:58:00,56.5,46.4,29.65,SW,225,1.1,4.0,69,0.00,,,0.20,WUHU216HW,2013-05-30 02:58:00,
2013-05-29 20:03:00,56.3,46.3,29.65,SSW,198,0.5,3.1,69,0.00,,,0.20,WUHU216HW,2013-05-30 03:03:00,
2013-05-29 20:08:00,56.2,46.2,29.65,South,173,0.8,1.3,69,0.00,,,0.20,WUHU216HW,2013-05-30 03:08:00,
2013-05-29 20:13:00,56.0,46.4,29.65,South,180,1.8,1.8,70,0.00,,,0.20,WUHU216HW,2013-05-30 03:13:00,
2013-05-29 20:18:00,55.8,46.3,29.65,SE,135,0.9,2.0,70,0.00,,,0.20,WUHU216HW,2013-05-30 03:18:00,
2013-05-29 20:23:00,55.6,46.5,29.65,SW,228,1.0,2.2,71,0.00,,,0.20,WUHU216HW,2013-05-30 03:23:00,
2013-05-29 20:28:00,55.4,46.3,29.66,West,264,0.5,2.2,71,0.00,,,0.20,WUHU216HW,2013-05-30 03:28:00,
2013-05-29 20:33:00,55.4,46.3,29.66,South,185,1.3,2.9,71,0.00,,,0.20,WUHU216HW,2013-05-30 03:33:00,
2013-05-29 20:38:00,55.1,45.9,29.66,West,270,0.2,2.9,71,0.00,,,0.20,WUHU216HW,2013-05-30 03:38:00,
2013-05-29 20:43:00,55.1,46.3,29.67,South,180,0.3,1.3,72,0.00,,,0.20,WUHU216HW,2013-05-30 03:43:00,
2013-05-29 20:48:00,54.9,46.1,29.67,SSE,156,0.7,1.3,72,0.00,,,0.20,WUHU216HW,2013-05-30 03:48:00,
2013-05-29 20:53:00,54.7,46.3,29.67,South,188,0.2,1.8,73,0.00,,,0.20,WUHU216HW,2013-05-30 03:53:00,
2013-05-29 20:58:00,54.5,46.1,29.68,SSW,203,0.3,1.8,73,0.00,,,0.20,WUHU216HW,2013-05-30 03:58:00,
2013-05-29 21:01:00,54.4,45.9,29.67,WSW,248,1.8,1.8,73,0.00,,,0.20,WUHU216HW,2013-05-30 04:01:00,
2013-05-29 21:06:00,54.4,46.3,29.67,WNW,298,0.4,1.8,74,0.00,,,0.20,WUHU216HW,2013-05-30 04:06:00,
2013-05-29 21:11:00,54.2,46.1,29.67,SSE,162,0.6,1.8,74,0.00,,,0.20,WUHU216HW,2013-05-30 04:11:00,
2013-05-29 21:16:00,53.8,45.7,29.67,SSW,203,0.0,1.1,74,0.00,,,0.20,WUHU216HW,2013-05-30 04:16:00,
2013-05-29 21:21:00,53.6,45.9,29.68,SSW,203,0.0,0.4,75,0.00,,,0.20,WUHU216HW,2013-05-30 04:21:00,
2013-05-29 21:26:00,53.5,45.7,29.68,ESE,113,0.0,0.4,75,0.00,,,0.20,WUHU216HW,2013-05-30 04:26:00,
2013-05-29 21:31:00,53.3,45.2,29.68,SW,236,0.4,1.1,74,0.00,,,0.20,WUHU216HW,2013-05-30 04:31:00,
2013-05-29 21:36:00,53.1,45.0,29.68,SW,225,0.0,1.1,74,0.00,,,0.20,WUHU216HW,2013-05-30 04:36:00,
2013-05-29 21:41:00,52.9,45.2,29.68,SW,225,0.0,0.2,75,0.00,,,0.20,WUHU216HW,2013-05-30 04:41:00,
2013-05-29 21:46:00,52.7,45.0,29.69,SW,225,0.0,0.0,75,0.00,,,0.20,WUHU216HW,2013-05-30 04:46:00,
2013-05-29 21:51:00,52.6,44.9,29.69,SSE,158,0.7,0.9,75,0.00,,,0.20,WUHU216HW,2013-05-30 04:51:00,
2013-05-29 21:56:00,52.6,45.2,29.69,SE,135,0.0,0.9,76,0.00,,,0.20,WUHU216HW,2013-05-30 04:56:00,
2013-05-29 22:01:00,52.4,45.1,29.69,SE,135,0.0,0.7,76,0.00,,,0.20,WUHU216HW,2013-05-30 05:01:00,
2013-05-29 22:06:00,52.4,45.1,29.69,SE,135,0.0,0.4,76,0.00,,,0.20,WUHU216HW,2013-05-30 05:06:00,
2013-05-29 22:11:00,52.4,45.1,29.70,SSW,203,0.4,0.4,76,0.00,,,0.20,WUHU216HW,2013-05-30 05:11:00,
2013-05-29 22:16:00,52.2,44.9,29.69,SSW,203,0.0,0.4,76,0.00,,,0.20,WUHU216HW,2013-05-30 05:16:00,
2013-05-29 22:21:00,52.2,44.9,29.69,WSW,255,1.0,2.0,76,0.00,,,0.20,WUHU216HW,2013-05-30 05:21:00,
2013-05-29 22:26:00,52.0,45.1,29.70,SW,232,0.6,2.0,77,0.00,,,0.20,WUHU216HW,2013-05-30 05:26:00,
2013-05-29 22:31:00,51.7,44.7,29.70,SE,139,0.5,1.1,77,0.00,,,0.20,WUHU216HW,2013-05-30 05:31:00,
2013-05-29 22:36:00,51.3,44.6,29.70,SSE,148,0.7,1.8,78,0.00,,,0.20,WUHU216HW,2013-05-30 05:36:00,
2013-05-29 22:41:00,51.1,44.5,29.70,WNW,293,0.4,1.8,78,0.00,,,0.20,WUHU216HW,2013-05-30 05:41:00,
2013-05-29 22:46:00,50.9,44.3,29.70,WNW,293,0.0,0.4,78,0.00,,,0.20,WUHU216HW,2013-05-30 05:46:00,
2013-05-29 22:51:00,50.9,44.3,29.70,NW,315,0.0,0.4,78,0.00,,,0.20,WUHU216HW,2013-05-30 05:51:00,
2013-05-29 22:56:00,50.9,44.3,29.70,NNW,338,0.4,0.7,78,0.00,,,0.20,WUHU216HW,2013-05-30 05:56:00,
2013-05-29 23:01:00,51.1,44.5,29.71,NNW,338,0.0,0.7,78,0.00,,,0.20,WUHU216HW,2013-05-30 06:01:00,
2013-05-29 23:06:00,51.1,44.5,29.71,ESE,105,0.3,0.4,78,0.00,,,0.20,WUHU216HW,2013-05-30 06:06:00,
2013-05-29 23:11:00,51.1,44.5,29.71,SSW,203,0.2,0.4,78,0.00,,,0.20,WUHU216HW,2013-05-30 06:11:00,
2013-05-29 23:16:00,51.3,44.6,29.71,ESE,113,0.3,0.4,78,0.00,,,0.20,WUHU216HW,2013-05-30 06:16:00,
2013-05-29 23:21:00,51.3,44.6,29.71,ESE,113,0.4,0.9,78,0.00,,,0.20,WUHU216HW,2013-05-30 06:21:00,
2013-05-29 23:26:00,51.5,44.8,29.72,North,0,1.3,1.3,78,0.00,,,0.20,WUHU216HW,2013-05-30 06:26:00,
2013-05-29 23:31:00,51.5,44.8,29.72,NW,307,1.2,2.0,78,0.00,,,0.20,WUHU216HW,2013-05-30 06:31:00,
2013-05-29 23:36:00,51.7,45.0,29.71,SE,135,0.2,2.0,78,0.00,,,0.20,WUHU216HW,2013-05-30 06:36:00,
2013-05-29 23:41:00,51.8,45.2,29.72,WNW,297,1.1,2.0,78,0.00,,,0.20,WUHU216HW,2013-05-30 06:41:00,
2013-05-29 23:46:00,51.8,45.2,29.72,WNW,282,0.4,2.0,78,0.00,,,0.20,WUHU216HW,2013-05-30 06:46:00,
2013-05-29 23:51:00,52.0,45.4,29.72,SW,225,0.2,1.3,78,0.00,,,0.20,WUHU216HW,2013-05-30 06:51:00,
2013-05-29 23:56:00,52.0,45.1,29.72,South,179,0.5,0.9,77,0.00,,,0.20,WUHU216HW,2013-05-30 06:56:00,